Latest Coastal Weather Observations for Lake Macquarie - Cooranbong

IDN60701

Issued at 6:01 am EST Wednesday 8 July 2015 (issued every 10 minutes, with the page automatically refreshed every 10 minutes)

About coastal observations | Map of coastal stations | Coastal observations for NSW | Marine services | Other Formats
Station Details ID: 061412 Name: LAKE MACQUARIE AWS Lat: -33.09 Lon: 151.46 Height: 6.0 m
Data from the previous 72 hours. | See also: Recent months at Lake Macquarie - Cooranbong
Date/Time
EST
Temp

°C
Wind Pressure Rain
since 9am
mm
Weather Cloud Vis
km
Sea
Height
m
Swell
Dir
 
Speed
knots
Gust
knots
hPa Trend Height
m
Period
s
Dir
08/06:00am 4.9 CALM 0 0 1027.0 - 0.4 Recent precip. - - - - - -
08/05:30am 4.2 CALM 0 2 1026.6 - 0.2 - - - - - - -
08/05:00am 5.1 CALM 0 0 1026.4 - 0.2 - - - - - - -
08/04:30am 4.9 CALM 0 0 1026.1 - 0.2 - - - - - - -
08/04:00am 5.5 CALM 0 0 1025.9 - 0.2 - - - - - - -
08/03:30am 5.8 CALM 0 0 1025.9 - 0.2 - - - - - - -
08/03:00am 5.9 CALM 0 0 1025.8 - 0.2 - - - - - - -
08/02:30am 6.5 CALM 0 0 1025.7 - 0.2 - - - - - - -
08/02:00am 7.0 CALM 0 1 1025.6 - 0.2 - - - - - - -
08/01:30am 7.2 CALM 0 0 1025.7 - 0.2 - - - - - - -
08/01:00am 7.9 CALM 0 0 1025.6 - 0.2 - - - - - - -
08/12:30am 8.3 CALM 0 0 1025.5 - 0.2 - - - - - - -
08/12:00am 9.8 CALM 0 2 1025.5 - 0.2 - - - - - - -
 
Date/Time
EST
Temp

°C
Wind Pressure Rain
since 9am
mm
Weather Cloud Vis
km
Sea
Height
m
Swell
Dir
 
Speed
knots
Gust
knots
hPa Trend Height
m
Period
s
Dir
07/11:30pm 10.3 WSW 2 3 1025.6 - 0.2 - - - - - - -
07/11:00pm 10.5 WSW 2 4 1025.4 - 0.2 - - - - - - -
07/10:30pm 9.8 CALM 0 3 1025.6 - 0.2 - - - - - - -
07/10:00pm 9.2 CALM 0 3 1025.2 - 0.2 - - - - - - -
07/09:30pm 9.9 CALM 0 0 1025.0 - 0.2 - - - - - - -
07/09:00pm 10.5 WSW 2 5 1024.9 - 0.2 - - - - - - -
07/08:30pm 9.5 CALM 0 1 1024.9 - 0.2 - - - - - - -
07/08:00pm 9.8 WSW 1 2 1024.6 - 0.2 - - - - - - -
07/07:30pm 9.7 CALM 0 3 1024.4 - 0.2 - - - - - - -
07/07:00pm 9.9 CALM 0 1 1024.1 - 0.2 - - - - - - -
07/06:30pm 10.7 WSW 2 3 1023.7 - 0.2 - - - - - - -
07/06:00pm 11.0 CALM 0 2 1023.4 - 0.2 - - - - - - -
07/05:30pm 11.2 SW 1 3 1023.1 - 0.2 - - - - - - -
07/05:00pm 11.7 WSW 2 3 1022.6 - 0.2 - - - - - - -
07/04:30pm 12.6 S 4 10 1022.4 - 0.0 - - - - - - -
07/04:00pm 13.0 SE 2 3 1022.0 - 0.0 - - - - - - -
07/03:30pm 13.2 SSE 4 8 1021.7 - 0.0 - - - - - - -
07/03:00pm 14.9 S 3 7 1021.1 - 0.0 - - - - - - -
07/02:30pm 14.2 SE 4 7 1020.9 - 0.0 - - - - - - -
07/02:00pm 15.3 SSE 4 9 1020.6 - 0.0 - - - - - - -
07/01:30pm 15.4 S 4 10 1020.3 - 0.0 - - - - - - -
07/01:00pm 15.6 S 4 8 1020.2 - 0.0 - - - - - - -
07/12:30pm 15.7 SSW 5 12 1020.1 - 0.0 - - - - - - -
07/12:00pm 15.3 SSW 6 12 1020.1 - 0.0 - - - - - - -
07/11:30am 15.8 SW 5 11 1020.2 - 0.0 - - - - - - -
07/11:00am 15.5 SW 4 11 1020.6 - 0.0 - - - - - - -
07/10:30am 14.8 SW 6 12 1020.6 - 0.0 - - - - - - -
07/10:00am 14.7 SW 5 11 1020.5 - 0.0 - - - - - - -
07/09:30am 13.9 WSW 4 7 1020.3 - 0.0 - - - - - - -
07/09:00am 12.4 WSW 3 8 1019.9 - 0.2 - - - - - - -
07/08:30am 8.1 CALM 0 0 1019.8 - 0.2 - - - - - - -
07/08:00am 5.5 CALM 0 1 1019.7 - 0.2 - - - - - - -
07/07:30am 3.0 CALM 0 0 1019.4 - 0.2 - - - - - - -
07/07:00am 3.2 CALM 0 2 1018.8 - 0.2 - - - - - - -
07/06:30am 3.5 ENE 1 3 1018.3 - 0.2 - - - - - - -
07/06:00am 2.7 E 1 2 1017.8 - 0.2 - - - - - - -
07/05:30am 2.8 CALM 0 0 1017.4 - 0.2 - - - - - - -
07/05:00am 3.3 CALM 0 0 1017.1 - 0.2 - - - - - - -
07/04:30am 3.4 CALM 0 0 1016.9 - 0.2 - - - - - - -
07/04:00am 3.5 CALM 0 0 1017.0 - 0.2 - - - - - - -
07/03:30am 3.7 CALM 0 0 1016.9 - 0.2 - - - - - - -
07/03:00am 3.5 CALM 0 0 1016.8 - 0.2 - - - - - - -
07/02:30am 4.2 CALM 0 0 1016.7 - 0.2 - - - - - - -
07/02:00am 4.3 N 1 4 1016.6 - 0.2 - - - - - - -
07/01:30am 4.5 N 2 3 1016.6 - 0.0 - - - - - - -
07/01:00am 5.4 N 1 3 1016.8 - 0.0 - - - - - - -
07/12:30am 7.6 N 4 6 1016.7 - 0.0 - - - - - - -
07/12:00am 4.3 NNE 1 4 1016.8 - 0.0 - - - - - - -
 
Date/Time
EST
Temp

°C
Wind Pressure Rain
since 9am
mm
Weather Cloud Vis
km
Sea
Height
m
Swell
Dir
 
Speed
knots
Gust
knots
hPa Trend Height
m
Period
s
Dir
06/11:30pm 4.0 N 2 4 1016.9 - 0.0 - - - - - - -
06/11:00pm 3.8 CALM 0 0 1017.1 - 0.0 - - - - - - -
06/10:30pm 4.0 CALM 0 0 1017.1 - 0.0 - - - - - - -
06/10:00pm 4.4 NNE 1 2 1016.8 - 0.0 - - - - - - -
06/09:30pm 4.5 NNE 1 3 1016.7 - 0.0 - - - - - - -
06/09:00pm 4.8 NNW 3 5 1016.8 - 0.0 - - - - - - -
06/08:30pm 4.4 N 1 3 1016.8 - 0.0 - - - - - - -
06/08:00pm 5.3 CALM 0 0 1016.6 - 0.0 - - - - - - -
06/07:30pm 5.8 CALM 0 0 1016.5 - 0.0 - - - - - - -
06/07:00pm 6.5 CALM 0 0 1016.1 - 0.0 - - - - - - -
06/06:30pm 7.2 CALM 0 0 1015.8 - 0.0 - - - - - - -
06/06:00pm 7.9 CALM 0 2 1015.3 - 0.0 - - - - - - -
06/05:30pm 9.1 CALM 0 2 1014.8 - 0.0 - - - - - - -
06/05:00pm 12.1 NW 1 2 1014.4 - 0.0 - - - - - - -
06/04:30pm 14.7 NW 2 3 1014.0 - 0.0 - - - - - - -
06/04:00pm 16.9 WNW 3 6 1013.8 - 0.0 - - - - - - -
06/03:30pm 17.3 WNW 4 6 1013.7 - 0.0 - - - - - - -
06/03:00pm 17.2 NNW 5 8 1013.6 - 0.0 - - - - - - -
06/02:30pm 17.1 NW 5 9 1013.5 - 0.0 - - - - - - -
06/02:00pm 17.0 NNW 5 9 1013.4 - 0.0 - - - - - - -
06/01:30pm 16.8 NW 6 12 1013.6 - 0.0 - - - - - - -
06/01:00pm 16.7 WNW 6 13 1013.9 - 0.0 - - - - - - -
06/12:30pm 16.2 NW 6 10 1014.4 - 0.0 - - - - - - -
06/12:00pm 15.8 NW 6 11 1015.0 - 0.0 - - - - - - -
06/11:30am 15.9 NW 5 7 1015.5 - 0.0 - - - - - - -
06/11:00am 15.4 NW 5 12 1016.0 - 0.0 - - - - - - -
06/10:30am 14.4 NW 4 9 1016.2 - 0.0 - - - - - - -
06/10:00am 13.6 NW 4 7 1016.6 - 0.0 - - - - - - -
06/09:30am 10.6 W 1 2 1016.8 - 0.0 - - - - - - -
06/09:00am 7.2 CALM 0 0 1016.8 - 0.0 - - - - - - -
06/08:30am 3.8 CALM 0 0 1016.7 - 0.0 - - - - - - -
06/08:00am 1.3 CALM 0 0 1016.8 - 0.0 - - - - - - -
06/07:30am -0.1 CALM 0 0 1016.9 - 0.0 - - - - - - -
06/07:00am -0.1 CALM 0 0 1016.8 - 0.0 - - - - - - -
06/06:30am 0.0 CALM 0 0 1016.7 - 0.0 - - - - - - -
06/06:00am -0.1 CALM 0 0 1016.6 - 0.0 - - - - - - -
06/05:30am 0.3 CALM 0 0 1016.3 - 0.0 - - - - - - -
06/05:00am 0.4 CALM 0 0 1016.6 - 0.0 - - - - - - -
06/04:30am 0.7 CALM 0 0 1016.7 - 0.0 - - - - - - -
06/04:00am 0.8 CALM 0 0 1016.7 - 0.0 - - - - - - -
06/03:30am 0.8 CALM 0 0 1016.9 - 0.0 - - - - - - -
06/03:00am 1.4 CALM 0 0 1017.0 - 0.0 - - - - - - -
06/02:30am 1.4 CALM 0 0 1017.5 - 0.0 - - - - - - -
06/02:00am 1.6 CALM 0 0 1017.7 - 0.0 - - - - - - -
06/01:30am 1.8 CALM 0 0 1018.1 - 0.0 - - - - - - -
06/01:00am 2.4 CALM 0 0 1018.2 - 0.0 - - - - - - -
06/12:30am 2.7 CALM 0 0 1018.3 - 0.0 - - - - - - -
06/12:00am 2.8 CALM 0 0 1018.4 - 0.0 - - - - - - -
 
Date/Time
EST
Temp

°C
Wind Pressure Rain
since 9am
mm
Weather Cloud Vis
km
Sea
Height
m
Swell
Dir
 
Speed
knots
Gust
knots
hPa Trend Height
m
Period
s
Dir
05/11:30pm 3.3 CALM 0 0 1018.5 - 0.0 - - - - - - -
05/11:00pm 3.7 CALM 0 0 1018.6 - 0.0 - - - - - - -
05/10:30pm 4.0 CALM 0 0 1018.6 - 0.0 - - - - - - -
05/10:00pm 4.4 CALM 0 0 1018.4 - 0.0 - - - - - - -
05/09:30pm 4.8 CALM 0 0 1018.5 - 0.0 - - - - - - -
05/09:00pm 5.2 CALM 0 0 1018.7 - 0.0 - - - - - - -
05/08:30pm 5.5 CALM 0 0 1018.7 - 0.0 - - - - - - -
05/08:00pm 6.1 CALM 0 0 1018.9 - 0.0 - - - - - - -
05/07:30pm 6.7 CALM 0 0 1018.9 - 0.0 - - - - - - -
05/07:00pm 7.1 CALM 0 0 1018.7 - 0.0 - - - - - - -
05/06:30pm 8.1 CALM 0 0 1018.5 - 0.0 - - - - - - -
05/06:00pm 9.0 CALM 0 0 1018.5 - 0.0 - - - - - - -
05/05:30pm 9.6 NNW 1 2 1018.3 - 0.0 - - - - - - -
05/05:00pm 12.0 CALM 0 2 1018.4 - 0.0 - - - - - - -
05/04:30pm 14.9 N 2 4 1018.1 - 0.0 - - - - - - -
05/04:00pm 17.2 NNW 2 4 1018.3 - 0.0 - - - - - - -
05/03:30pm 18.3 NW 3 5 1018.4 - 0.0 - - - - - - -
05/03:00pm 18.1 NNW 4 6 1018.2 - 0.0 - - - - - - -
05/02:30pm 18.2 NNW 4 7 1018.2 - 0.0 - - - - - - -
05/02:00pm 18.4 NNW 3 7 1018.2 - 0.0 - - - - - - -
05/01:30pm 18.2 N 3 5 1018.6 - 0.0 - - - - - - -
05/01:00pm 18.4 NW 2 5 1018.9 - 0.0 - - - - - - -
05/12:30pm 18.0 NNW 2 5 1019.6 - 0.0 - - - - - - -
05/12:00pm 17.1 N 1 3 1020.1 - 0.0 - - - - - - -
05/11:30am 15.9 ENE 2 4 1020.7 - 0.0 - - - - - - -
05/11:00am 14.5 E 1 3 1021.3 - 0.0 - - - - - - -
05/10:30am 14.0 CALM 0 0 1021.9 - 0.0 - - - - - - -
05/10:00am 11.4 SE 1 3 1022.1 - 0.0 - - - - - - -
05/09:30am 9.4 CALM 0 0 1022.1 - 0.0 - - - - - - -
05/09:00am 6.4 CALM 0 0 1022.2 - 0.0 - - - - - - -
05/08:30am 3.3 CALM 0 0 1022.2 - 0.0 - - - - - - -
05/08:00am 1.4 CALM 0 0 1022.2 - 0.0 - - - - - - -
05/07:30am -0.2 CALM 0 0 1022.2 - 0.0 - - - - - - -
05/07:00am -0.4 CALM 0 0 1022.0 - 0.0 - - - - - - -
05/06:30am -0.1 CALM 0 0 1022.0 - 0.0 - - - - - - -

Other Formats:

Comma delimited format used in spreadsheet applications
http://www.bom.gov.au/fwo/IDN60701/IDN60701.95767.axf

JavaScript Object Notation format (JSON) in row-major order
http://www.bom.gov.au/fwo/IDN60701/IDN60701.95767.json